sensor_id;sensor_type;location;lat;lon;timestamp;P1;durP1;ratioP1;P2;durP2;ratioP2
56511;SDS011;42408;53.238;5.686;2023-02-15T00:00:11;201.90;;;44.13;;
56511;SDS011;42408;53.238;5.686;2023-02-15T00:02:37;223.80;;;41.57;;
56511;SDS011;42408;53.238;5.686;2023-02-15T00:05:03;207.13;;;38.45;;
56511;SDS011;42408;53.238;5.686;2023-02-15T00:07:29;281.92;;;43.75;;
56511;SDS011;42408;53.238;5.686;2023-02-15T00:09:55;155.60;;;36.60;;
56511;SDS011;42408;53.238;5.686;2023-02-15T00:12:20;157.50;;;35.00;;
56511;SDS011;42408;53.238;5.686;2023-02-15T00:14:46;154.03;;;37.83;;
56511;SDS011;42408;53.238;5.686;2023-02-15T00:17:12;143.85;;;35.42;;
56511;SDS011;42408;53.238;5.686;2023-02-15T00:19:38;317.17;;;43.77;;
56511;SDS011;42408;53.238;5.686;2023-02-15T00:22:05;231.05;;;38.45;;
56511;SDS011;42408;53.238;5.686;2023-02-15T00:24:31;320.83;;;42.60;;
56511;SDS011;42408;53.238;5.686;2023-02-15T00:26:57;464.80;;;49.15;;
56511;SDS011;42408;53.238;5.686;2023-02-15T00:29:22;482.00;;;49.30;;
56511;SDS011;42408;53.238;5.686;2023-02-15T00:31:48;369.53;;;44.27;;
56511;SDS011;42408;53.238;5.686;2023-02-15T00:34:23;354.17;;;44.03;;
56511;SDS011;42408;53.238;5.686;2023-02-15T00:36:50;455.77;;;47.90;;
56511;SDS011;42408;53.238;5.686;2023-02-15T00:39:16;287.30;;;38.53;;
56511;SDS011;42408;53.238;5.686;2023-02-15T00:41:43;354.90;;;39.40;;
56511;SDS011;42408;53.238;5.686;2023-02-15T00:44:09;242.15;;;36.58;;
56511;SDS011;42408;53.238;5.686;2023-02-15T00:46:35;331.43;;;43.40;;
56511;SDS011;42408;53.238;5.686;2023-02-15T00:49:01;422.77;;;42.77;;
56511;SDS011;42408;53.238;5.686;2023-02-15T00:51:28;231.90;;;35.78;;
56511;SDS011;42408;53.238;5.686;2023-02-15T00:53:54;177.60;;;32.77;;
56511;SDS011;42408;53.238;5.686;2023-02-15T00:56:20;359.47;;;42.20;;
56511;SDS011;42408;53.238;5.686;2023-02-15T00:58:46;324.93;;;38.83;;
56511;SDS011;42408;53.238;5.686;2023-02-15T01:01:12;475.07;;;46.83;;
56511;SDS011;42408;53.238;5.686;2023-02-15T01:03:40;384.02;;;43.00;;
56511;SDS011;42408;53.238;5.686;2023-02-15T01:06:12;402.98;;;43.67;;
56511;SDS011;42408;53.238;5.686;2023-02-15T01:08:39;406.38;;;45.10;;
56511;SDS011;42408;53.238;5.686;2023-02-15T01:11:06;377.03;;;45.57;;
56511;SDS011;42408;53.238;5.686;2023-02-15T01:13:39;353.70;;;45.60;;
56511;SDS011;42408;53.238;5.686;2023-02-15T01:16:06;298.40;;;40.88;;
56511;SDS011;42408;53.238;5.686;2023-02-15T01:18:32;359.27;;;45.53;;
56511;SDS011;42408;53.238;5.686;2023-02-15T01:20:59;322.77;;;43.92;;
56511;SDS011;42408;53.238;5.686;2023-02-15T01:23:24;567.03;;;57.33;;
56511;SDS011;42408;53.238;5.686;2023-02-15T01:25:50;519.83;;;54.60;;
56511;SDS011;42408;53.238;5.686;2023-02-15T01:28:16;784.03;;;74.20;;
56511;SDS011;42408;53.238;5.686;2023-02-15T01:30:41;423.60;;;48.20;;
56511;SDS011;42408;53.238;5.686;2023-02-15T01:33:07;609.93;;;59.47;;
56511;SDS011;42408;53.238;5.686;2023-02-15T01:35:42;649.85;;;63.65;;
56511;SDS011;42408;53.238;5.686;2023-02-15T01:38:08;530.42;;;53.20;;
56511;SDS011;42408;53.238;5.686;2023-02-15T01:40:34;444.37;;;47.07;;
56511;SDS011;42408;53.238;5.686;2023-02-15T01:42:59;383.53;;;51.07;;
56511;SDS011;42408;53.238;5.686;2023-02-15T01:45:30;209.67;;;33.50;;
56511;SDS011;42408;53.238;5.686;2023-02-15T01:50:33;389.60;;;41.38;;
56511;SDS011;42408;53.238;5.686;2023-02-15T01:53:13;434.45;;;44.60;;
56511;SDS011;42408;53.238;5.686;2023-02-15T01:56:03;396.25;;;38.78;;
56511;SDS011;42408;53.238;5.686;2023-02-15T01:58:34;468.35;;;45.70;;
56511;SDS011;42408;53.238;5.686;2023-02-15T02:01:01;409.10;;;40.35;;
56511;SDS011;42408;53.238;5.686;2023-02-15T02:06:16;275.75;;;36.97;;
56511;SDS011;42408;53.238;5.686;2023-02-15T02:08:42;171.75;;;29.92;;
56511;SDS011;42408;53.238;5.686;2023-02-15T02:11:09;172.00;;;29.92;;
56511;SDS011;42408;53.238;5.686;2023-02-15T02:13:36;262.55;;;33.10;;
56511;SDS011;42408;53.238;5.686;2023-02-15T02:16:36;279.07;;;34.47;;
56511;SDS011;42408;53.238;5.686;2023-02-15T02:21:52;208.75;;;33.92;;
56511;SDS011;42408;53.238;5.686;2023-02-15T02:28:28;324.80;;;39.53;;
56511;SDS011;42408;53.238;5.686;2023-02-15T02:42:48;297.52;;;41.15;;
56511;SDS011;42408;53.238;5.686;2023-02-15T02:45:28;339.77;;;41.38;;
56511;SDS011;42408;53.238;5.686;2023-02-15T02:48:02;312.10;;;39.60;;
56511;SDS011;42408;53.238;5.686;2023-02-15T02:50:33;277.85;;;37.85;;
56511;SDS011;42408;53.238;5.686;2023-02-15T02:52:59;309.43;;;39.23;;
56511;SDS011;42408;53.238;5.686;2023-02-15T02:55:26;347.25;;;41.47;;
56511;SDS011;42408;53.238;5.686;2023-02-15T02:57:57;335.20;;;40.60;;
56511;SDS011;42408;53.238;5.686;2023-02-15T03:00:26;300.33;;;39.55;;
56511;SDS011;42408;53.238;5.686;2023-02-15T03:02:56;322.05;;;38.90;;
56511;SDS011;42408;53.238;5.686;2023-02-15T03:05:30;318.05;;;39.38;;
56511;SDS011;42408;53.238;5.686;2023-02-15T03:07:58;318.83;;;39.97;;
56511;SDS011;42408;53.238;5.686;2023-02-15T03:10:31;378.77;;;42.60;;
56511;SDS011;42408;53.238;5.686;2023-02-15T03:12:59;288.55;;;40.65;;
56511;SDS011;42408;53.238;5.686;2023-02-15T03:15:28;317.10;;;37.43;;
56511;SDS011;42408;53.238;5.686;2023-02-15T03:18:17;234.93;;;35.30;;
56511;SDS011;42408;53.238;5.686;2023-02-15T03:20:47;240.60;;;35.45;;
56511;SDS011;42408;53.238;5.686;2023-02-15T03:25:44;267.27;;;35.15;;
56511;SDS011;42408;53.238;5.686;2023-02-15T03:28:35;343.42;;;39.20;;
56511;SDS011;42408;53.238;5.686;2023-02-15T03:31:06;316.88;;;39.53;;
56511;SDS011;42408;53.238;5.686;2023-02-15T03:33:34;223.93;;;35.00;;
56511;SDS011;42408;53.238;5.686;2023-02-15T03:44:31;248.67;;;33.10;;
56511;SDS011;42408;53.238;5.686;2023-02-15T03:49:51;338.35;;;37.13;;
56511;SDS011;42408;53.238;5.686;2023-02-15T03:52:24;372.10;;;40.50;;
56511;SDS011;42408;53.238;5.686;2023-02-15T03:54:52;414.23;;;42.55;;
56511;SDS011;42408;53.238;5.686;2023-02-15T03:57:22;308.70;;;38.20;;
56511;SDS011;42408;53.238;5.686;2023-02-15T04:03:06;309.02;;;35.90;;
56511;SDS011;42408;53.238;5.686;2023-02-15T04:05:41;303.08;;;34.20;;
56511;SDS011;42408;53.238;5.686;2023-02-15T04:08:08;183.57;;;30.00;;
56511;SDS011;42408;53.238;5.686;2023-02-15T04:10:34;124.55;;;28.27;;
56511;SDS011;42408;53.238;5.686;2023-02-15T04:13:20;109.18;;;26.08;;
56511;SDS011;42408;53.238;5.686;2023-02-15T04:15:47;192.23;;;31.60;;
56511;SDS011;42408;53.238;5.686;2023-02-15T04:18:28;193.43;;;31.92;;
56511;SDS011;42408;53.238;5.686;2023-02-15T04:21:13;131.27;;;28.92;;
56511;SDS011;42408;53.238;5.686;2023-02-15T04:23:57;123.43;;;26.65;;
56511;SDS011;42408;53.238;5.686;2023-02-15T04:26:41;135.30;;;28.45;;
56511;SDS011;42408;53.238;5.686;2023-02-15T04:29:07;116.17;;;28.63;;
56511;SDS011;42408;53.238;5.686;2023-02-15T04:31:32;119.03;;;27.90;;
56511;SDS011;42408;53.238;5.686;2023-02-15T04:33:58;80.67;;;25.07;;
56511;SDS011;42408;53.238;5.686;2023-02-15T04:36:24;98.03;;;26.63;;
56511;SDS011;42408;53.238;5.686;2023-02-15T04:38:49;138.03;;;28.63;;
56511;SDS011;42408;53.238;5.686;2023-02-15T04:41:15;178.27;;;28.43;;
56511;SDS011;42408;53.238;5.686;2023-02-15T04:43:40;132.37;;;27.73;;
56511;SDS011;42408;53.238;5.686;2023-02-15T04:46:06;153.17;;;29.00;;
56511;SDS011;42408;53.238;5.686;2023-02-15T04:48:32;152.70;;;29.47;;
56511;SDS011;42408;53.238;5.686;2023-02-15T04:50:57;96.37;;;27.53;;
56511;SDS011;42408;53.238;5.686;2023-02-15T04:53:23;88.93;;;25.27;;
56511;SDS011;42408;53.238;5.686;2023-02-15T04:55:49;83.33;;;26.67;;
56511;SDS011;42408;53.238;5.686;2023-02-15T04:58:14;92.67;;;27.63;;
56511;SDS011;42408;53.238;5.686;2023-02-15T05:00:40;47.00;;;25.67;;
56511;SDS011;42408;53.238;5.686;2023-02-15T05:03:05;66.63;;;25.60;;
56511;SDS011;42408;53.238;5.686;2023-02-15T05:05:31;49.60;;;26.33;;
56511;SDS011;42408;53.238;5.686;2023-02-15T05:07:57;45.77;;;24.50;;
56511;SDS011;42408;53.238;5.686;2023-02-15T05:10:22;47.30;;;24.87;;
56511;SDS011;42408;53.238;5.686;2023-02-15T05:12:48;71.03;;;28.63;;
56511;SDS011;42408;53.238;5.686;2023-02-15T05:15:14;53.13;;;27.63;;
56511;SDS011;42408;53.238;5.686;2023-02-15T05:17:39;73.33;;;28.37;;
56511;SDS011;42408;53.238;5.686;2023-02-15T05:20:05;52.60;;;26.33;;
56511;SDS011;42408;53.238;5.686;2023-02-15T05:22:31;65.85;;;28.27;;
56511;SDS011;42408;53.238;5.686;2023-02-15T05:24:57;42.40;;;28.20;;
56511;SDS011;42408;53.238;5.686;2023-02-15T05:27:41;34.28;;;26.42;;
56511;SDS011;42408;53.238;5.686;2023-02-15T05:30:26;36.75;;;27.77;;
56511;SDS011;42408;53.238;5.686;2023-02-15T05:32:51;38.97;;;29.03;;
56511;SDS011;42408;53.238;5.686;2023-02-15T05:35:17;38.63;;;27.00;;
56511;SDS011;42408;53.238;5.686;2023-02-15T05:37:43;33.43;;;27.30;;
56511;SDS011;42408;53.238;5.686;2023-02-15T05:40:09;52.00;;;30.43;;
56511;SDS011;42408;53.238;5.686;2023-02-15T05:42:35;39.83;;;29.10;;
56511;SDS011;42408;53.238;5.686;2023-02-15T05:45:00;52.57;;;29.80;;
56511;SDS011;42408;53.238;5.686;2023-02-15T05:47:26;43.13;;;27.60;;
56511;SDS011;42408;53.238;5.686;2023-02-15T05:49:52;44.83;;;29.60;;
56511;SDS011;42408;53.238;5.686;2023-02-15T05:52:17;47.13;;;30.30;;
56511;SDS011;42408;53.238;5.686;2023-02-15T05:54:43;49.87;;;30.00;;
56511;SDS011;42408;53.238;5.686;2023-02-15T05:57:08;99.73;;;30.90;;
56511;SDS011;42408;53.238;5.686;2023-02-15T05:59:34;76.97;;;29.27;;
56511;SDS011;42408;53.238;5.686;2023-02-15T06:02:00;115.13;;;31.77;;
56511;SDS011;42408;53.238;5.686;2023-02-15T06:04:25;77.13;;;28.40;;
56511;SDS011;42408;53.238;5.686;2023-02-15T06:06:51;81.30;;;30.40;;
56511;SDS011;42408;53.238;5.686;2023-02-15T06:09:17;56.60;;;27.90;;
56511;SDS011;42408;53.238;5.686;2023-02-15T06:11:43;64.45;;;28.35;;
56511;SDS011;42408;53.238;5.686;2023-02-15T06:16:35;85.82;;;30.23;;
56511;SDS011;42408;53.238;5.686;2023-02-15T06:19:01;63.33;;;30.00;;
56511;SDS011;42408;53.238;5.686;2023-02-15T06:21:28;71.95;;;29.77;;
56511;SDS011;42408;53.238;5.686;2023-02-15T06:23:54;131.20;;;31.45;;
56511;SDS011;42408;53.238;5.686;2023-02-15T06:26:19;67.13;;;28.77;;
56511;SDS011;42408;53.238;5.686;2023-02-15T06:28:45;74.73;;;30.77;;
56511;SDS011;42408;53.238;5.686;2023-02-15T06:31:11;61.77;;;29.60;;
56511;SDS011;42408;53.238;5.686;2023-02-15T06:33:36;57.90;;;29.53;;
56511;SDS011;42408;53.238;5.686;2023-02-15T06:36:03;71.20;;;30.27;;
56511;SDS011;42408;53.238;5.686;2023-02-15T06:38:29;58.03;;;29.47;;
56511;SDS011;42408;53.238;5.686;2023-02-15T06:40:55;58.22;;;30.17;;
56511;SDS011;42408;53.238;5.686;2023-02-15T06:43:21;53.17;;;29.90;;
56511;SDS011;42408;53.238;5.686;2023-02-15T06:45:46;51.80;;;29.17;;
56511;SDS011;42408;53.238;5.686;2023-02-15T06:48:12;75.33;;;31.30;;
56511;SDS011;42408;53.238;5.686;2023-02-15T06:50:38;85.63;;;32.20;;
56511;SDS011;42408;53.238;5.686;2023-02-15T06:53:03;72.67;;;33.47;;
56511;SDS011;42408;53.238;5.686;2023-02-15T06:55:29;84.07;;;33.50;;
56511;SDS011;42408;53.238;5.686;2023-02-15T06:57:55;67.77;;;31.97;;
56511;SDS011;42408;53.238;5.686;2023-02-15T07:00:20;41.53;;;29.57;;
56511;SDS011;42408;53.238;5.686;2023-02-15T07:02:48;70.40;;;30.60;;
56511;SDS011;42408;53.238;5.686;2023-02-15T07:05:21;58.25;;;30.38;;
56511;SDS011;42408;53.238;5.686;2023-02-15T07:07:47;51.88;;;29.95;;
56511;SDS011;42408;53.238;5.686;2023-02-15T07:10:12;55.37;;;29.73;;
56511;SDS011;42408;53.238;5.686;2023-02-15T07:12:38;44.47;;;29.33;;
56511;SDS011;42408;53.238;5.686;2023-02-15T07:15:15;65.07;;;29.52;;
56511;SDS011;42408;53.238;5.686;2023-02-15T07:17:42;74.88;;;31.58;;
56511;SDS011;42408;53.238;5.686;2023-02-15T07:20:12;76.13;;;32.92;;
56511;SDS011;42408;53.238;5.686;2023-02-15T07:22:40;97.43;;;30.33;;
56511;SDS011;42408;53.238;5.686;2023-02-15T07:25:06;74.73;;;31.33;;
56511;SDS011;42408;53.238;5.686;2023-02-15T07:27:34;43.78;;;29.25;;
56511;SDS011;42408;53.238;5.686;2023-02-15T07:30:00;74.57;;;30.77;;
56511;SDS011;42408;53.238;5.686;2023-02-15T07:32:29;62.43;;;30.10;;
56511;SDS011;42408;53.238;5.686;2023-02-15T07:34:56;91.43;;;34.78;;
56511;SDS011;42408;53.238;5.686;2023-02-15T07:37:22;73.82;;;34.90;;
56511;SDS011;42408;53.238;5.686;2023-02-15T07:39:48;58.80;;;33.65;;
56511;SDS011;42408;53.238;5.686;2023-02-15T07:42:14;61.97;;;35.17;;
56511;SDS011;42408;53.238;5.686;2023-02-15T07:44:40;68.30;;;30.70;;
56511;SDS011;42408;53.238;5.686;2023-02-15T07:47:05;70.13;;;30.93;;
56511;SDS011;42408;53.238;5.686;2023-02-15T07:49:31;74.40;;;32.20;;
56511;SDS011;42408;53.238;5.686;2023-02-15T07:51:57;69.93;;;31.67;;
56511;SDS011;42408;53.238;5.686;2023-02-15T07:54:22;53.77;;;30.97;;
56511;SDS011;42408;53.238;5.686;2023-02-15T07:56:48;67.50;;;32.97;;
56511;SDS011;42408;53.238;5.686;2023-02-15T07:59:14;51.43;;;30.53;;
56511;SDS011;42408;53.238;5.686;2023-02-15T08:01:39;98.33;;;31.07;;
56511;SDS011;42408;53.238;5.686;2023-02-15T08:04:05;62.60;;;31.00;;
56511;SDS011;42408;53.238;5.686;2023-02-15T08:06:33;64.15;;;30.13;;
56511;SDS011;42408;53.238;5.686;2023-02-15T08:09:01;67.80;;;29.70;;
56511;SDS011;42408;53.238;5.686;2023-02-15T08:11:30;68.25;;;31.50;;
56511;SDS011;42408;53.238;5.686;2023-02-15T08:19:07;49.57;;;30.37;;
56511;SDS011;42408;53.238;5.686;2023-02-15T08:21:39;58.70;;;32.00;;
56511;SDS011;42408;53.238;5.686;2023-02-15T08:24:07;54.97;;;31.85;;
56511;SDS011;42408;53.238;5.686;2023-02-15T08:26:34;45.95;;;31.13;;
56511;SDS011;42408;53.238;5.686;2023-02-15T08:29:01;57.67;;;30.67;;
56511;SDS011;42408;53.238;5.686;2023-02-15T08:31:28;61.63;;;31.23;;
56511;SDS011;42408;53.238;5.686;2023-02-15T08:33:54;51.97;;;32.25;;
56511;SDS011;42408;53.238;5.686;2023-02-15T08:36:22;51.75;;;31.77;;
56511;SDS011;42408;53.238;5.686;2023-02-15T08:38:50;46.88;;;31.20;;
56511;SDS011;42408;53.238;5.686;2023-02-15T08:41:26;40.15;;;32.30;;
56511;SDS011;42408;53.238;5.686;2023-02-15T08:43:55;43.92;;;34.08;;
56511;SDS011;42408;53.238;5.686;2023-02-15T08:46:23;46.15;;;33.92;;
56511;SDS011;42408;53.238;5.686;2023-02-15T08:48:50;43.38;;;33.35;;
56511;SDS011;42408;53.238;5.686;2023-02-15T08:51:17;47.30;;;34.03;;
56511;SDS011;42408;53.238;5.686;2023-02-15T08:53:49;48.40;;;33.83;;
56511;SDS011;42408;53.238;5.686;2023-02-15T08:56:25;45.25;;;32.75;;
56511;SDS011;42408;53.238;5.686;2023-02-15T08:58:55;48.30;;;33.90;;
56511;SDS011;42408;53.238;5.686;2023-02-15T09:01:22;44.88;;;32.92;;
56511;SDS011;42408;53.238;5.686;2023-02-15T09:03:57;42.35;;;32.60;;
56511;SDS011;42408;53.238;5.686;2023-02-15T09:06:24;45.25;;;31.98;;
56511;SDS011;42408;53.238;5.686;2023-02-15T09:11:21;46.55;;;33.75;;
56511;SDS011;42408;53.238;5.686;2023-02-15T09:13:52;45.83;;;33.60;;
56511;SDS011;42408;53.238;5.686;2023-02-15T09:16:20;44.20;;;32.78;;
56511;SDS011;42408;53.238;5.686;2023-02-15T09:21:13;43.45;;;32.05;;
56511;SDS011;42408;53.238;5.686;2023-02-15T09:23:44;46.58;;;33.53;;
56511;SDS011;42408;53.238;5.686;2023-02-15T09:26:15;47.67;;;33.00;;
56511;SDS011;42408;53.238;5.686;2023-02-15T09:28:43;46.05;;;33.75;;
56511;SDS011;42408;53.238;5.686;2023-02-15T09:33:43;49.10;;;35.67;;
56511;SDS011;42408;53.238;5.686;2023-02-15T09:36:15;50.03;;;35.22;;
56511;SDS011;42408;53.238;5.686;2023-02-15T09:38:46;48.03;;;35.53;;
56511;SDS011;42408;53.238;5.686;2023-02-15T09:41:36;49.70;;;35.15;;
56511;SDS011;42408;53.238;5.686;2023-02-15T09:55:03;52.00;;;35.83;;
56511;SDS011;42408;53.238;5.686;2023-02-15T09:57:53;50.88;;;34.13;;
56511;SDS011;42408;53.238;5.686;2023-02-15T10:11:51;50.88;;;34.40;;
56511;SDS011;42408;53.238;5.686;2023-02-15T10:17:36;53.50;;;36.20;;
56511;SDS011;42408;53.238;5.686;2023-02-15T10:28:19;46.30;;;32.45;;
56511;SDS011;42408;53.238;5.686;2023-02-15T10:30:49;49.03;;;33.28;;
56511;SDS011;42408;53.238;5.686;2023-02-15T10:33:30;44.78;;;32.47;;
56511;SDS011;42408;53.238;5.686;2023-02-15T10:44:48;48.38;;;33.08;;
56511;SDS011;42408;53.238;5.686;2023-02-15T10:55:34;48.28;;;33.63;;
56511;SDS011;42408;53.238;5.686;2023-02-15T11:04:08;52.75;;;31.10;;
56511;SDS011;42408;53.238;5.686;2023-02-15T11:06:38;46.20;;;31.10;;
56511;SDS011;42408;53.238;5.686;2023-02-15T11:09:12;50.50;;;31.42;;
56511;SDS011;42408;53.238;5.686;2023-02-15T11:11:40;48.63;;;32.25;;
56511;SDS011;42408;53.238;5.686;2023-02-15T11:14:15;46.60;;;33.25;;
56511;SDS011;42408;53.238;5.686;2023-02-15T11:17:02;46.40;;;30.63;;
56511;SDS011;42408;53.238;5.686;2023-02-15T11:19:34;48.85;;;33.55;;
56511;SDS011;42408;53.238;5.686;2023-02-15T11:22:05;47.65;;;32.30;;
56511;SDS011;42408;53.238;5.686;2023-02-15T11:24:43;52.10;;;34.08;;
56511;SDS011;42408;53.238;5.686;2023-02-15T11:27:23;50.58;;;32.50;;
56511;SDS011;42408;53.238;5.686;2023-02-15T11:32:28;45.03;;;32.35;;
56511;SDS011;42408;53.238;5.686;2023-02-15T11:40:03;49.60;;;32.63;;
56511;SDS011;42408;53.238;5.686;2023-02-15T11:42:55;52.47;;;32.63;;
56511;SDS011;42408;53.238;5.686;2023-02-15T11:45:27;49.00;;;32.30;;
56511;SDS011;42408;53.238;5.686;2023-02-15T11:47:55;47.17;;;32.05;;
56511;SDS011;42408;53.238;5.686;2023-02-15T11:50:26;49.10;;;31.90;;
56511;SDS011;42408;53.238;5.686;2023-02-15T11:53:01;47.63;;;32.22;;
56511;SDS011;42408;53.238;5.686;2023-02-15T12:00:45;50.25;;;34.55;;
56511;SDS011;42408;53.238;5.686;2023-02-15T12:03:22;50.47;;;33.30;;
56511;SDS011;42408;53.238;5.686;2023-02-15T12:05:58;52.30;;;34.83;;
56511;SDS011;42408;53.238;5.686;2023-02-15T12:08:36;51.20;;;34.25;;
56511;SDS011;42408;53.238;5.686;2023-02-15T12:13:30;49.17;;;35.10;;
56511;SDS011;42408;53.238;5.686;2023-02-15T12:15:56;48.83;;;33.73;;
56511;SDS011;42408;53.238;5.686;2023-02-15T12:20:59;52.30;;;36.13;;
56511;SDS011;42408;53.238;5.686;2023-02-15T12:23:28;50.67;;;34.70;;
56511;SDS011;42408;53.238;5.686;2023-02-15T12:25:55;52.97;;;34.92;;
56511;SDS011;42408;53.238;5.686;2023-02-15T12:34:09;48.63;;;33.28;;
56511;SDS011;42408;53.238;5.686;2023-02-15T12:36:41;52.85;;;34.88;;
56511;SDS011;42408;53.238;5.686;2023-02-15T12:41:37;46.70;;;33.80;;
56511;SDS011;42408;53.238;5.686;2023-02-15T12:49:41;51.35;;;32.17;;
56511;SDS011;42408;53.238;5.686;2023-02-15T12:54:45;51.10;;;32.92;;
56511;SDS011;42408;53.238;5.686;2023-02-15T12:57:20;54.22;;;32.45;;
56511;SDS011;42408;53.238;5.686;2023-02-15T12:59:58;50.78;;;32.83;;
56511;SDS011;42408;53.238;5.686;2023-02-15T13:02:41;46.13;;;31.63;;
56511;SDS011;42408;53.238;5.686;2023-02-15T13:08:14;49.05;;;33.90;;
56511;SDS011;42408;53.238;5.686;2023-02-15T13:10:51;46.90;;;33.97;;
56511;SDS011;42408;53.238;5.686;2023-02-15T13:13:24;48.90;;;31.95;;
56511;SDS011;42408;53.238;5.686;2023-02-15T13:15:52;47.03;;;33.42;;
56511;SDS011;42408;53.238;5.686;2023-02-15T13:18:25;53.88;;;34.78;;
56511;SDS011;42408;53.238;5.686;2023-02-15T13:20:56;46.90;;;31.85;;
56511;SDS011;42408;53.238;5.686;2023-02-15T13:23:27;51.03;;;34.13;;
56511;SDS011;42408;53.238;5.686;2023-02-15T13:25:55;47.92;;;32.55;;
56511;SDS011;42408;53.238;5.686;2023-02-15T13:28:24;50.95;;;34.17;;
56511;SDS011;42408;53.238;5.686;2023-02-15T13:30:57;45.38;;;32.70;;
56511;SDS011;42408;53.238;5.686;2023-02-15T13:33:34;51.20;;;34.90;;
56511;SDS011;42408;53.238;5.686;2023-02-15T13:36:08;50.47;;;32.78;;
56511;SDS011;42408;53.238;5.686;2023-02-15T13:41:15;48.40;;;34.60;;
56511;SDS011;42408;53.238;5.686;2023-02-15T13:49:19;52.83;;;34.22;;
56511;SDS011;42408;53.238;5.686;2023-02-15T13:54:42;52.20;;;32.95;;
56511;SDS011;42408;53.238;5.686;2023-02-15T14:00:11;47.95;;;31.27;;
56511;SDS011;42408;53.238;5.686;2023-02-15T14:03:01;48.08;;;33.53;;
56511;SDS011;42408;53.238;5.686;2023-02-15T14:11:15;48.70;;;32.67;;
56511;SDS011;42408;53.238;5.686;2023-02-15T14:16:53;47.83;;;33.38;;
56511;SDS011;42408;53.238;5.686;2023-02-15T14:22:41;49.28;;;33.35;;
56511;SDS011;42408;53.238;5.686;2023-02-15T14:25:25;52.10;;;33.05;;
56511;SDS011;42408;53.238;5.686;2023-02-15T14:30:28;50.47;;;34.55;;
56511;SDS011;42408;53.238;5.686;2023-02-15T14:33:40;50.28;;;33.78;;
56511;SDS011;42408;53.238;5.686;2023-02-15T14:35:49;51.67;;;32.72;;
56511;SDS011;42408;53.238;5.686;2023-02-15T14:38:26;49.60;;;34.27;;
56511;SDS011;42408;53.238;5.686;2023-02-15T14:41:53;52.25;;;34.88;;
56511;SDS011;42408;53.238;5.686;2023-02-15T14:44:32;50.60;;;35.08;;
56511;SDS011;42408;53.238;5.686;2023-02-15T14:47:25;50.13;;;34.42;;
56511;SDS011;42408;53.238;5.686;2023-02-15T14:49:56;48.83;;;34.42;;
56511;SDS011;42408;53.238;5.686;2023-02-15T14:52:22;50.00;;;34.43;;
56511;SDS011;42408;53.238;5.686;2023-02-15T14:59:40;51.80;;;35.07;;
56511;SDS011;42408;53.238;5.686;2023-02-15T15:02:18;49.58;;;33.88;;
56511;SDS011;42408;53.238;5.686;2023-02-15T15:05:03;57.10;;;35.95;;
56511;SDS011;42408;53.238;5.686;2023-02-15T15:12:51;49.20;;;35.08;;
56511;SDS011;42408;53.238;5.686;2023-02-15T15:20:41;51.28;;;35.63;;
56511;SDS011;42408;53.238;5.686;2023-02-15T15:44:50;48.95;;;35.72;;
56511;SDS011;42408;53.238;5.686;2023-02-15T15:50:28;56.13;;;37.63;;
56511;SDS011;42408;53.238;5.686;2023-02-15T15:52:55;50.57;;;35.50;;
56511;SDS011;42408;53.238;5.686;2023-02-15T15:55:24;54.67;;;37.70;;
56511;SDS011;42408;53.238;5.686;2023-02-15T15:57:53;52.72;;;36.33;;
56511;SDS011;42408;53.238;5.686;2023-02-15T16:03:26;53.83;;;38.20;;
56511;SDS011;42408;53.238;5.686;2023-02-15T16:05:53;55.90;;;36.60;;
56511;SDS011;42408;53.238;5.686;2023-02-15T16:11:24;52.08;;;38.63;;
56511;SDS011;42408;53.238;5.686;2023-02-15T16:13:50;55.63;;;38.28;;
56511;SDS011;42408;53.238;5.686;2023-02-15T16:18:47;59.50;;;37.88;;
56511;SDS011;42408;53.238;5.686;2023-02-15T16:21:34;61.58;;;37.58;;
56511;SDS011;42408;53.238;5.686;2023-02-15T16:29:32;61.33;;;39.65;;
56511;SDS011;42408;53.238;5.686;2023-02-15T16:34:29;54.97;;;40.00;;
56511;SDS011;42408;53.238;5.686;2023-02-15T16:37:13;57.60;;;39.70;;
56511;SDS011;42408;53.238;5.686;2023-02-15T16:39:42;63.08;;;39.45;;
56511;SDS011;42408;53.238;5.686;2023-02-15T16:42:09;58.70;;;41.45;;
56511;SDS011;42408;53.238;5.686;2023-02-15T16:44:36;60.58;;;40.97;;
56511;SDS011;42408;53.238;5.686;2023-02-15T16:47:02;66.20;;;43.80;;
56511;SDS011;42408;53.238;5.686;2023-02-15T16:49:28;63.43;;;40.77;;
56511;SDS011;42408;53.238;5.686;2023-02-15T16:52:01;58.97;;;39.38;;
56511;SDS011;42408;53.238;5.686;2023-02-15T16:54:33;57.42;;;41.28;;
56511;SDS011;42408;53.238;5.686;2023-02-15T16:57:00;62.05;;;40.42;;
56511;SDS011;42408;53.238;5.686;2023-02-15T17:02:42;60.13;;;40.88;;
56511;SDS011;42408;53.238;5.686;2023-02-15T17:10:34;63.03;;;44.22;;
56511;SDS011;42408;53.238;5.686;2023-02-15T17:13:02;66.03;;;42.55;;
56511;SDS011;42408;53.238;5.686;2023-02-15T17:15:38;70.43;;;45.58;;
56511;SDS011;42408;53.238;5.686;2023-02-15T17:18:25;58.85;;;43.00;;
56511;SDS011;42408;53.238;5.686;2023-02-15T17:20:52;71.70;;;46.55;;
56511;SDS011;42408;53.238;5.686;2023-02-15T17:23:21;101.78;;;71.50;;
56511;SDS011;42408;53.238;5.686;2023-02-15T17:25:57;76.63;;;55.53;;
56511;SDS011;42408;53.238;5.686;2023-02-15T17:28:24;76.43;;;53.70;;
56511;SDS011;42408;53.238;5.686;2023-02-15T17:30:52;87.35;;;70.53;;
56511;SDS011;42408;53.238;5.686;2023-02-15T17:33:21;71.53;;;50.72;;
56511;SDS011;42408;53.238;5.686;2023-02-15T17:38:29;70.38;;;48.47;;
56511;SDS011;42408;53.238;5.686;2023-02-15T17:40:55;65.53;;;45.77;;
56511;SDS011;42408;53.238;5.686;2023-02-15T17:43:21;67.82;;;46.10;;
56511;SDS011;42408;53.238;5.686;2023-02-15T17:45:47;65.77;;;48.13;;
56511;SDS011;42408;53.238;5.686;2023-02-15T17:48:20;65.65;;;47.88;;
56511;SDS011;42408;53.238;5.686;2023-02-15T17:50:56;69.30;;;46.55;;
56511;SDS011;42408;53.238;5.686;2023-02-15T17:53:22;64.25;;;48.22;;
56511;SDS011;42408;53.238;5.686;2023-02-15T17:55:49;75.20;;;49.15;;
56511;SDS011;42408;53.238;5.686;2023-02-15T17:58:16;71.80;;;49.37;;
56511;SDS011;42408;53.238;5.686;2023-02-15T18:00:47;64.88;;;45.80;;
56511;SDS011;42408;53.238;5.686;2023-02-15T18:03:44;70.10;;;47.85;;
56511;SDS011;42408;53.238;5.686;2023-02-15T18:06:32;67.07;;;46.05;;
56511;SDS011;42408;53.238;5.686;2023-02-15T18:09:19;72.30;;;47.65;;
56511;SDS011;42408;53.238;5.686;2023-02-15T18:14:50;68.38;;;46.58;;
56511;SDS011;42408;53.238;5.686;2023-02-15T18:17:18;68.25;;;46.65;;
56511;SDS011;42408;53.238;5.686;2023-02-15T18:19:46;74.68;;;48.33;;
56511;SDS011;42408;53.238;5.686;2023-02-15T18:22:13;69.70;;;47.23;;
56511;SDS011;42408;53.238;5.686;2023-02-15T18:24:41;72.85;;;46.28;;
56511;SDS011;42408;53.238;5.686;2023-02-15T18:29:35;136.23;;;73.95;;
56511;SDS011;42408;53.238;5.686;2023-02-15T18:32:01;84.57;;;52.30;;
56511;SDS011;42408;53.238;5.686;2023-02-15T18:34:28;87.88;;;54.60;;
56511;SDS011;42408;53.238;5.686;2023-02-15T18:36:57;91.15;;;58.25;;
56511;SDS011;42408;53.238;5.686;2023-02-15T18:39:36;97.72;;;59.25;;
56511;SDS011;42408;53.238;5.686;2023-02-15T18:42:04;73.80;;;52.65;;
56511;SDS011;42408;53.238;5.686;2023-02-15T18:44:31;89.80;;;57.05;;
56511;SDS011;42408;53.238;5.686;2023-02-15T18:46:57;75.90;;;49.00;;